Time;durP1;ratioP1;P1;durP2;ratioP2;P2;SDS_P1;SDS_P2;PMS_P1;PMS_P2;Temp;Humidity;BMP_temperature;BMP_pressure;BME280_temperature;BME280_humidity;BME280_pressure;Samples;Min_cycle;Max_cycle;Signal;HPM_P1;HPM_P2
2022/04/23 05:09:21;;;;;;;27.02;21.73;;;7.60;99.90;;;;;;5688836;23;20255;-62
2022/04/23 05:11:47;;;;;;;29.30;21.90;;;7.70;99.90;;;;;;4931664;29;135862;-62
2022/04/23 05:14:16;;;;;;;30.13;22.70;;;7.70;99.90;;;;;;4937384;29;20291;-62
2022/04/23 05:16:43;;;;;;;27.02;21.85;;;7.70;99.90;;;;;;4937829;29;20212;-62
2022/04/23 05:19:10;;;;;;;29.02;22.55;;;7.70;99.90;;;;;;4933319;29;20233;-62
2022/04/23 05:21:37;;;;;;;27.98;21.55;;;7.70;99.90;;;;;;4919265;29;20627;-62
2022/04/23 05:24:06;;;;;;;28.13;21.15;;;7.70;99.90;;;;;;4946245;23;20248;-65
2022/04/23 05:26:35;;;;;;;29.00;20.95;;;7.80;99.90;;;;;;4937739;29;20204;-64
2022/04/23 05:29:02;;;;;;;25.63;19.95;;;7.80;99.90;;;;;;4937022;29;20235;-64
2022/04/23 05:31:29;;;;;;;25.77;20.70;;;7.90;99.90;;;;;;4937674;29;20296;-64
2022/04/23 05:33:56;;;;;;;26.42;21.08;;;7.90;99.90;;;;;;4923653;29;20280;-64
2022/04/23 05:36:23;;;;;;;25.90;20.35;;;7.90;99.90;;;;;;4918354;29;20296;-64
2022/04/23 05:38:50;;;;;;;26.08;20.58;;;7.90;99.90;;;;;;4918023;29;20768;-64
2022/04/23 05:41:17;;;;;;;25.73;20.33;;;7.90;99.90;;;;;;4918069;29;20296;-64
2022/04/23 05:43:45;;;;;;;25.65;19.98;;;8.00;99.90;;;;;;4917760;29;20322;-64
2022/04/23 05:46:12;;;;;;;25.10;20.80;;;8.00;99.90;;;;;;4917801;29;20866;-64
2022/04/23 05:48:39;;;;;;;27.85;20.67;;;8.00;99.90;;;;;;4918122;29;20298;-64
2022/04/23 05:51:05;;;;;;;27.95;19.70;;;8.00;99.90;;;;;;4918119;29;20205;-64
2022/04/23 05:53:32;;;;;;;27.65;20.20;;;8.00;99.90;;;;;;4918394;29;20305;-64
2022/04/23 05:55:59;;;;;;;25.98;20.70;;;8.00;99.90;;;;;;4917941;29;20292;-64
2022/04/23 05:58:26;;;;;;;26.00;20.33;;;8.10;99.90;;;;;;4917543;29;20749;-64
2022/04/23 06:00:55;;;;;;;25.77;21.10;;;8.10;99.90;;;;;;4917846;29;20292;-64
2022/04/23 06:03:22;;;;;;;27.38;20.80;;;8.10;99.90;;;;;;4917725;29;20240;-64
2022/04/23 06:05:48;;;;;;;27.35;21.13;;;8.10;99.90;;;;;;4917766;29;20301;-64
2022/04/23 06:08:15;;;;;;;27.17;21.67;;;8.10;99.90;;;;;;4918256;29;20720;-64
2022/04/23 06:10:42;;;;;;;28.65;20.70;;;8.10;99.90;;;;;;4917270;29;20744;-64
2022/04/23 06:13:09;;;;;;;25.50;20.33;;;8.10;99.90;;;;;;4917182;29;20248;-63
2022/04/23 06:15:36;;;;;;;27.90;20.23;;;8.10;99.90;;;;;;4917338;29;20296;-64
2022/04/23 06:18:05;;;;;;;29.13;21.23;;;8.10;99.90;;;;;;4917704;29;20296;-64
2022/04/23 06:20:32;;;;;;;25.42;19.77;;;8.10;99.90;;;;;;4917659;29;20257;-64
2022/04/23 06:22:59;;;;;;;22.60;18.80;;;8.20;99.90;;;;;;4917265;29;20316;-64
2022/04/23 06:25:25;;;;;;;20.83;18.48;;;8.20;99.90;;;;;;4917542;29;20295;-64
2022/04/23 06:27:53;;;;;;;25.35;18.60;;;8.10;99.90;;;;;;4917458;29;20205;-65
2022/04/23 06:30:20;;;;;;;22.50;18.10;;;8.10;99.90;;;;;;4917564;29;20212;-64
2022/04/23 06:32:47;;;;;;;22.65;18.42;;;8.10;99.90;;;;;;4917119;29;20657;-64
2022/04/23 06:35:15;;;;;;;23.27;18.45;;;8.10;99.90;;;;;;4917413;29;20210;-64
2022/04/23 06:37:42;;;;;;;22.58;17.92;;;8.10;99.90;;;;;;4917057;29;20296;-64
2022/04/23 06:40:11;;;;;;;23.85;19.25;;;8.10;99.90;;;;;;4917375;29;20287;-64
2022/04/23 06:42:39;;;;;;;22.90;17.98;;;8.20;99.90;;;;;;4916823;29;20229;-64
2022/04/23 06:45:06;;;;;;;25.25;19.17;;;8.20;99.90;;;;;;4916963;29;20732;-64
2022/04/23 06:47:33;;;;;;;23.83;19.23;;;8.20;99.90;;;;;;4916773;29;20292;-65
2022/04/23 06:50:00;;;;;;;23.63;18.40;;;8.20;99.90;;;;;;4917300;29;20288;-65
2022/04/23 06:52:29;;;;;;;24.38;18.23;;;8.20;99.90;;;;;;4917067;29;20293;-65
2022/04/23 06:54:56;;;;;;;23.45;18.20;;;8.20;99.90;;;;;;4916844;29;20296;-65
2022/04/23 06:57:26;;;;;;;26.63;20.98;;;8.20;99.90;;;;;;4917153;29;20296;-65
2022/04/23 06:59:53;;;;;;;23.63;18.80;;;8.20;99.90;;;;;;4917396;29;20308;-64
2022/04/23 07:02:21;;;;;;;28.05;18.65;;;8.20;99.90;;;;;;4917286;29;20667;-64
2022/04/23 07:04:48;;;;;;;25.20;19.58;;;8.20;99.90;;;;;;4917350;29;20300;-65
2022/04/23 07:07:15;;;;;;;25.13;19.42;;;8.10;99.90;;;;;;4917717;29;20296;-65
2022/04/23 07:09:43;;;;;;;27.17;20.60;;;8.10;99.90;;;;;;4917324;29;20296;-65
2022/04/23 07:12:11;;;;;;;27.40;21.20;;;8.00;99.90;;;;;;4916991;29;20292;-65
2022/04/23 07:14:39;;;;;;;24.67;18.50;;;7.80;99.90;;;;;;4916949;29;20288;-65
2022/04/23 07:17:06;;;;;;;24.30;18.95;;;7.90;99.90;;;;;;4917037;29;20285;-65
2022/04/23 07:19:33;;;;;;;28.13;19.25;;;7.90;99.90;;;;;;4917063;29;20304;-65
2022/04/23 07:22:00;;;;;;;24.70;18.63;;;7.90;99.90;;;;;;4917833;29;20216;-64
2022/04/23 07:24:27;;;;;;;23.35;17.98;;;7.90;99.90;;;;;;4916685;29;20256;-65
2022/04/23 07:26:59;;;;;;;25.45;18.55;;;7.90;99.90;;;;;;4916756;29;20297;-65
2022/04/23 07:29:26;;;;;;;21.65;17.90;;;7.90;99.90;;;;;;4917254;29;20553;-64
2022/04/23 07:31:53;;;;;;;23.98;17.77;;;7.90;99.90;;;;;;4916684;29;20214;-62
2022/04/23 07:39:49;;;;;;;25.17;19.10;;;7.90;99.90;;;;;;4917463;29;20181;-62
2022/04/23 07:42:18;;;;;;;22.73;17.33;;;7.90;99.90;;;;;;4921379;29;20273;-63
2022/04/23 07:44:45;;;;;;;21.23;16.70;;;7.90;99.90;;;;;;4921186;29;20209;-62
2022/04/23 07:47:13;;;;;;;23.98;17.52;;;8.10;99.90;;;;;;4920645;29;20206;-63
2022/04/23 07:49:39;;;;;;;19.52;16.45;;;8.20;99.90;;;;;;4919511;29;20212;-62
2022/04/23 07:52:07;;;;;;;20.15;16.38;;;8.20;99.90;;;;;;4918054;29;20296;-62
2022/04/23 07:54:37;;;;;;;23.65;17.70;;;8.30;99.90;;;;;;4919969;29;20721;-63
2022/04/23 07:57:06;;;;;;;22.95;17.77;;;8.30;99.90;;;;;;4919956;29;20189;-62
2022/04/23 07:59:34;;;;;;;22.70;17.65;;;8.30;99.90;;;;;;4919838;29;20586;-62
2022/04/23 08:02:02;;;;;;;22.02;17.40;;;8.30;99.90;;;;;;4920039;29;20208;-62
2022/04/23 08:04:29;;;;;;;18.65;15.23;;;8.40;99.90;;;;;;4919878;29;20230;-62
2022/04/23 08:06:56;;;;;;;21.40;17.00;;;8.30;99.90;;;;;;4919990;29;20212;-62
2022/04/23 08:09:23;;;;;;;19.92;14.50;;;8.20;99.90;;;;;;4919910;29;20304;-62
2022/04/23 08:11:50;;;;;;;20.75;15.75;;;8.30;99.90;;;;;;4919622;29;20305;-63
2022/04/23 08:14:16;;;;;;;22.20;16.77;;;8.30;99.90;;;;;;4919747;29;20321;-63
2022/04/23 08:16:45;;;;;;;24.88;15.73;;;8.20;99.90;;;;;;4919750;29;20300;-63
2022/04/23 08:19:12;;;;;;;22.65;16.55;;;8.20;99.90;;;;;;4920197;29;20197;-62
2022/04/23 08:21:39;;;;;;;20.38;16.05;;;8.20;99.90;;;;;;4919491;29;20245;-63
2022/04/23 08:24:08;;;;;;;19.05;14.75;;;8.10;99.90;;;;;;4919186;29;20276;-63
2022/04/23 08:26:35;;;;;;;19.10;15.30;;;8.10;99.90;;;;;;4923907;29;20571;-63
2022/04/23 08:31:49;;;;;;;21.10;16.27;;;8.20;99.90;;;;;;4924855;29;20233;-63
2022/04/23 08:34:16;;;;;;;19.25;15.07;;;8.30;99.90;;;;;;4924404;29;20221;-63
2022/04/23 08:36:43;;;;;;;23.17;16.30;;;8.40;99.90;;;;;;4924082;29;20201;-63
2022/04/23 08:39:10;;;;;;;18.75;14.93;;;8.40;99.90;;;;;;4919475;29;20300;-63
2022/04/23 08:41:37;;;;;;;19.25;14.88;;;8.40;99.90;;;;;;4919798;29;20292;-64
2022/04/23 08:44:06;;;;;;;20.40;15.25;;;8.40;99.90;;;;;;4920028;29;20796;-64
2022/04/23 08:46:35;;;;;;;19.92;14.55;;;8.30;99.90;;;;;;4919461;29;20209;-64
2022/04/23 08:49:14;;;;;;;18.83;15.23;;;8.30;99.90;;;;;;4919802;29;20241;-64
2022/04/23 08:51:43;;;;;;;22.23;15.80;;;8.30;99.90;;;;;;4920001;29;20185;-64
2022/04/23 08:54:12;;;;;;;18.63;13.73;;;8.20;99.90;;;;;;4920049;29;20225;-65
2022/04/23 08:56:41;;;;;;;19.40;14.93;;;8.10;99.90;;;;;;4920895;29;20308;-65
2022/04/23 08:59:08;;;;;;;18.38;14.65;;;8.20;99.90;;;;;;4919429;29;20644;-65
2022/04/23 09:01:38;;;;;;;20.05;15.13;;;8.20;99.90;;;;;;4919129;29;20299;-64
2022/04/23 09:04:06;;;;;;;16.70;13.77;;;8.20;99.90;;;;;;4918043;29;20234;-64
2022/04/23 09:06:40;;;;;;;20.50;14.88;;;8.20;99.90;;;;;;4919014;29;20741;-64
2022/04/23 09:09:08;;;;;;;18.90;14.95;;;8.30;99.90;;;;;;4918993;29;20531;-65
2022/04/23 09:11:36;;;;;;;19.27;14.85;;;8.40;99.90;;;;;;4918942;29;20292;-64
2022/04/23 09:14:03;;;;;;;20.45;13.95;;;8.50;99.90;;;;;;4918856;29;20228;-64
2022/04/23 09:24:46;;;;;;;19.17;14.63;;;8.60;99.90;;;;;;4918416;29;20229;-63
2022/04/23 09:27:13;;;;;;;20.42;15.27;;;8.60;99.90;;;;;;4918720;29;20206;-63
2022/04/23 09:29:42;;;;;;;17.75;13.55;;;8.60;99.90;;;;;;4918618;29;20608;-65
2022/04/23 09:32:10;;;;;;;18.17;13.98;;;8.70;99.90;;;;;;4918219;29;20205;-65
2022/04/23 09:34:37;;;;;;;15.60;12.48;;;8.80;99.90;;;;;;4918085;29;20212;-64
2022/04/23 09:37:05;;;;;;;18.85;14.27;;;8.90;99.90;;;;;;4918913;29;20206;-65
2022/04/23 09:39:35;;;;;;;21.20;16.02;;;8.90;99.90;;;;;;4918139;29;20209;-65
2022/04/23 09:42:16;;;;;;;18.83;14.70;;;9.00;99.90;;;;;;4918042;29;20569;-64
2022/04/23 09:44:44;;;;;;;18.80;13.70;;;9.10;99.90;;;;;;4918282;29;20225;-65
2022/04/23 09:47:11;;;;;;;18.67;14.65;;;9.20;99.90;;;;;;4918732;29;20237;-65
2022/04/23 09:49:40;;;;;;;22.73;15.75;;;9.20;99.90;;;;;;4918221;29;20293;-65
2022/04/23 09:52:09;;;;;;;19.98;14.40;;;9.10;99.90;;;;;;4918178;29;20284;-65
2022/04/23 09:54:38;;;;;;;19.23;14.00;;;9.20;99.90;;;;;;4918008;29;20285;-65
2022/04/23 09:57:05;;;;;;;22.45;15.80;;;9.30;99.90;;;;;;4918366;29;20293;-64
2022/04/23 09:59:32;;;;;;;19.60;14.30;;;9.30;99.90;;;;;;4917973;29;20249;-64
2022/04/23 10:01:59;;;;;;;19.52;14.93;;;9.20;99.90;;;;;;4918765;29;20598;-64
2022/04/23 10:04:27;;;;;;;17.45;14.00;;;9.20;99.90;;;;;;4917565;29;20653;-64
2022/04/23 10:06:56;;;;;;;17.63;14.10;;;9.10;99.90;;;;;;4918098;29;20626;-64
2022/04/23 10:09:28;;;;;;;16.27;13.30;;;9.10;99.90;;;;;;4918214;29;20209;-65
2022/04/23 10:12:01;;;;;;;16.65;13.27;;;9.10;99.90;;;;;;4918344;29;20288;-64
2022/04/23 10:14:29;;;;;;;20.50;13.27;;;9.10;99.90;;;;;;4917544;29;20303;-65
2022/04/23 10:16:56;;;;;;;17.90;13.60;;;9.20;99.90;;;;;;4917512;29;20300;-65
2022/04/23 10:19:25;;;;;;;16.50;13.38;;;9.20;99.90;;;;;;4917585;29;20205;-65
2022/04/23 10:21:57;;;;;;;15.32;12.35;;;9.20;99.90;;;;;;4917383;29;20296;-65
2022/04/23 10:24:33;;;;;;;21.45;14.05;;;9.20;99.90;;;;;;4917454;29;20241;-65
2022/04/23 10:27:06;;;;;;;15.60;12.27;;;9.40;99.90;;;;;;4917224;29;20204;-65
2022/04/23 10:29:35;;;;;;;16.52;12.95;;;9.50;99.90;;;;;;4917566;29;20249;-65
2022/04/23 10:32:19;;;;;;;18.08;14.50;;;9.50;99.90;;;;;;4917427;29;20212;-65
2022/04/23 10:34:46;;;;;;;14.30;12.77;;;9.70;99.90;;;;;;4917417;29;20201;-64
2022/04/23 10:37:14;;;;;;;17.23;13.60;;;9.70;99.90;;;;;;4917405;29;20292;-64
2022/04/23 10:39:43;;;;;;;13.55;11.70;;;10.00;99.90;;;;;;4917414;29;20206;-65
2022/04/23 10:42:13;;;;;;;13.00;10.88;;;10.10;99.90;;;;;;4917144;29;20666;-64
2022/04/23 10:44:42;;;;;;;23.33;15.20;;;10.20;99.90;;;;;;4917235;29;20218;-64
2022/04/23 10:47:16;;;;;;;19.20;14.02;;;10.20;99.90;;;;;;4917436;29;20261;-64
2022/04/23 10:49:43;;;;;;;14.50;11.70;;;10.10;99.90;;;;;;4917157;29;20661;-64
2022/04/23 10:52:10;;;;;;;20.00;12.80;;;10.20;99.90;;;;;;4917218;29;20209;-64
2022/04/23 10:54:57;;;;;;;12.65;11.32;;;10.30;99.90;;;;;;4917282;29;20397;-65
2022/04/23 10:57:25;;;;;;;14.73;12.95;;;10.40;99.90;;;;;;4917246;29;20209;-64
2022/04/23 10:59:53;;;;;;;16.35;13.52;;;10.60;99.90;;;;;;4917254;29;20205;-64
2022/04/23 11:02:35;;;;;;;13.52;11.10;;;10.40;99.90;;;;;;4917467;29;20209;-65
2022/04/23 11:13:27;;;;;;;18.05;13.73;;;10.90;99.90;;;;;;4918393;29;20245;-64
2022/04/23 11:16:16;;;;;;;15.82;12.13;;;10.90;99.90;;;;;;4918956;29;20300;-65
2022/04/23 11:18:44;;;;;;;15.38;11.52;;;10.80;99.90;;;;;;4919559;29;20205;-64
2022/04/23 11:21:17;;;;;;;14.00;10.57;;;10.80;99.90;;;;;;4920678;29;20244;-65
2022/04/23 11:23:47;;;;;;;15.32;12.52;;;10.80;99.90;;;;;;4917517;29;20271;-65
2022/04/23 11:26:17;;;;;;;17.33;14.25;;;10.70;99.90;;;;;;4917856;29;20292;-64
2022/04/23 11:28:44;;;;;;;15.30;13.10;;;10.40;99.90;;;;;;4920867;29;20190;-63
2022/04/23 11:31:13;;;;;;;14.18;11.93;;;10.10;99.90;;;;;;4920729;29;20205;-63
2022/04/23 11:33:51;;;;;;;17.83;13.32;;;10.00;99.90;;;;;;4920697;29;20221;-63
2022/04/23 11:36:18;;;;;;;18.90;14.40;;;10.10;99.90;;;;;;4920416;29;20553;-64
2022/04/23 11:38:45;;;;;;;17.50;15.23;;;10.10;99.90;;;;;;4920606;29;20367;-64
2022/04/23 11:41:25;;;;;;;18.25;14.10;;;10.10;99.90;;;;;;4920515;29;20300;-63
2022/04/23 11:43:54;;;;;;;19.58;14.40;;;10.00;99.90;;;;;;4920070;29;20319;-63
2022/04/23 11:46:21;;;;;;;15.55;13.63;;;10.10;99.90;;;;;;4920488;29;20229;-63
2022/04/23 11:48:50;;;;;;;17.20;14.15;;;10.10;99.90;;;;;;4920378;29;20296;-63
2022/04/23 11:51:21;;;;;;;16.63;13.52;;;10.00;99.90;;;;;;4920619;29;20247;-63
2022/04/23 11:53:59;;;;;;;11.68;10.38;;;10.10;99.90;;;;;;4920252;29;20232;-64
2022/04/23 11:56:29;;;;;;;14.88;12.68;;;10.30;99.90;;;;;;4920252;29;20196;-64
2022/04/23 11:59:01;;;;;;;16.52;13.45;;;10.30;99.90;;;;;;4920242;29;20190;-64
2022/04/23 12:01:28;;;;;;;14.82;13.23;;;10.40;99.90;;;;;;4920218;29;20285;-64
2022/04/23 12:03:57;;;;;;;13.23;11.70;;;10.40;99.90;;;;;;4919713;29;20320;-64
2022/04/23 12:06:24;;;;;;;16.77;13.20;;;10.60;99.90;;;;;;4920652;29;20205;-64
2022/04/23 12:08:51;;;;;;;14.85;12.60;;;10.70;99.90;;;;;;4919733;29;20206;-64
2022/04/23 12:11:23;;;;;;;14.88;12.98;;;10.70;99.90;;;;;;4919674;29;20757;-65
2022/04/23 12:13:50;;;;;;;16.48;14.02;;;10.70;99.90;;;;;;4919577;29;20743;-65
2022/04/23 12:16:42;;;;;;;19.45;14.23;;;10.60;99.90;;;;;;4919820;29;20305;-65
2022/04/23 12:19:10;;;;;;;17.00;12.85;;;10.30;99.90;;;;;;4919815;29;20281;-64
2022/04/23 12:21:38;;;;;;;16.48;12.80;;;10.50;99.90;;;;;;4919903;29;20292;-64
2022/04/23 12:24:07;;;;;;;18.55;15.18;;;10.60;99.90;;;;;;4919393;29;20229;-64
2022/04/23 12:26:35;;;;;;;17.67;14.38;;;10.70;99.90;;;;;;4919858;29;20261;-64
2022/04/23 12:43:30;;;;;;;15.07;13.27;;;10.50;99.90;;;;;;4919711;29;20264;-64
2022/04/23 12:46:08;;;;;;;20.00;14.93;;;10.60;99.90;;;;;;4919034;29;20213;-65
2022/04/23 12:49:03;;;;;;;16.80;13.70;;;10.70;99.90;;;;;;4919528;29;20303;-64
2022/04/23 12:51:30;;;;;;;18.90;14.40;;;10.80;99.90;;;;;;4919371;29;20221;-64
2022/04/23 12:53:57;;;;;;;22.73;16.60;;;10.90;99.90;;;;;;4919230;29;20308;-65
2022/04/23 12:56:43;;;;;;;17.70;12.93;;;11.10;99.90;;;;;;4919243;29;20296;-65
2022/04/23 12:59:10;;;;;;;20.08;16.27;;;11.40;99.90;;;;;;4919351;29;20268;-64
2022/04/23 13:01:37;;;;;;;21.92;16.08;;;11.70;99.90;;;;;;4919754;29;20272;-64
2022/04/23 13:04:10;;;;;;;20.65;15.70;;;11.70;99.90;;;;;;4919263;29;20316;-65
2022/04/23 13:09:21;;;;;;;17.60;14.02;;;11.70;99.90;;;;;;4899166;29;20201;-65
2022/04/23 13:11:49;;;;;;;20.52;15.20;;;11.80;99.90;;;;;;4918943;29;20277;-65
2022/04/23 13:14:16;;;;;;;16.95;12.77;;;11.60;99.90;;;;;;4918866;29;20221;-65
2022/04/23 13:16:44;;;;;;;13.60;11.07;;;11.70;99.90;;;;;;4918824;29;20202;-65
2022/04/23 13:19:12;;;;;;;18.05;14.75;;;11.70;99.90;;;;;;4918824;29;20202;-65
2022/04/23 13:21:39;;;;;;;15.35;12.23;;;11.80;99.90;;;;;;4918776;29;20296;-64
2022/04/23 13:24:06;;;;;;;15.27;12.88;;;11.80;99.90;;;;;;4918222;29;20269;-64
2022/04/23 13:26:34;;;;;;;18.00;14.50;;;11.80;99.90;;;;;;4918601;29;20291;-64
2022/04/23 13:29:00;;;;;;;15.25;13.63;;;11.80;99.90;;;;;;4918546;29;20253;-64
2022/04/23 13:31:27;;;;;;;15.57;12.50;;;11.80;99.90;;;;;;4918166;29;20292;-64
2022/04/23 13:33:54;;;;;;;16.15;13.43;;;12.00;99.90;;;;;;4918600;29;20257;-64
2022/04/23 13:36:23;;;;;;;15.25;12.57;;;12.00;99.90;;;;;;4918415;29;20296;-65
2022/04/23 13:38:50;;;;;;;15.85;13.68;;;12.00;99.90;;;;;;4918391;29;20292;-64
2022/04/23 13:41:18;;;;;;;17.40;14.07;;;12.10;99.90;;;;;;4918345;29;20301;-64
2022/04/23 13:43:46;;;;;;;15.40;13.20;;;12.10;99.90;;;;;;4917840;29;20259;-64
2022/04/23 13:46:13;;;;;;;20.52;14.65;;;12.30;99.90;;;;;;4918255;29;20317;-65
2022/04/23 13:48:40;;;;;;;14.52;13.02;;;12.30;99.90;;;;;;4918084;29;20300;-65
2022/04/23 13:51:08;;;;;;;14.55;12.80;;;12.40;99.90;;;;;;4917861;29;20309;-65
2022/04/23 13:53:36;;;;;;;14.95;12.07;;;12.30;99.90;;;;;;4918095;29;20318;-64
2022/04/23 13:56:04;;;;;;;21.75;15.00;;;12.50;99.90;;;;;;4917825;29;20713;-65
2022/04/23 13:58:31;;;;;;;17.48;13.55;;;12.40;99.90;;;;;;4917749;29;20643;-64
2022/04/23 14:00:58;;;;;;;13.68;11.43;;;12.50;99.90;;;;;;4917996;29;20292;-64
2022/04/23 14:11:39;;;;;;;17.75;13.98;;;12.40;99.90;;;;;;4917942;29;20257;-64
2022/04/23 14:14:06;;;;;;;15.93;13.00;;;12.20;99.90;;;;;;4917579;29;20311;-64
2022/04/23 14:16:33;;;;;;;14.07;12.63;;;12.00;99.90;;;;;;4917384;29;20307;-63
2022/04/23 14:19:00;;;;;;;13.75;11.75;;;11.90;99.90;;;;;;4917816;29;20264;-64
2022/04/23 14:21:27;;;;;;;13.80;11.75;;;12.00;99.90;;;;;;4917769;29;20253;-63
2022/04/23 14:23:56;;;;;;;13.88;11.60;;;12.10;99.90;;;;;;4917410;29;20237;-63
2022/04/23 14:26:22;;;;;;;14.85;12.38;;;12.20;99.90;;;;;;4917173;29;20678;-64
2022/04/23 14:28:50;;;;;;;13.32;11.85;;;12.30;99.90;;;;;;4917280;29;20738;-63
2022/04/23 14:31:17;;;;;;;12.23;11.02;;;12.50;99.90;;;;;;4917328;29;20638;-63
2022/04/23 14:33:43;;;;;;;15.25;12.82;;;12.50;99.90;;;;;;4917345;29;20264;-65
2022/04/23 14:36:10;;;;;;;14.52;12.43;;;12.40;99.90;;;;;;4917575;29;20288;-64
2022/04/23 14:38:39;;;;;;;13.85;12.00;;;12.20;99.90;;;;;;4917469;29;20298;-64
2022/04/23 14:41:07;;;;;;;14.52;11.98;;;12.10;99.90;;;;;;4917369;29;20308;-64
2022/04/23 14:43:35;;;;;;;13.73;11.18;;;12.00;99.90;;;;;;4918556;29;20713;-64
2022/04/23 14:46:03;;;;;;;14.40;11.57;;;12.00;99.90;;;;;;4921372;29;20617;-64
2022/04/23 14:48:30;;;;;;;12.73;11.40;;;11.90;99.90;;;;;;4920026;29;20673;-65
2022/04/23 14:53:42;;;;;;;12.73;10.77;;;11.80;99.90;;;;;;4917424;29;20228;-64
2022/04/23 14:56:11;;;;;;;15.50;12.93;;;11.80;99.90;;;;;;4917414;29;20193;-64
2022/04/23 14:58:38;;;;;;;15.73;12.52;;;12.00;99.90;;;;;;4917430;29;20194;-64
2022/04/23 15:01:05;;;;;;;13.63;11.73;;;12.00;99.90;;;;;;4917430;29;20237;-64
2022/04/23 15:03:32;;;;;;;13.30;11.52;;;12.00;99.90;;;;;;4920908;29;20777;-65
2022/04/23 15:06:00;;;;;;;12.35;10.18;;;12.10;99.90;;;;;;4922182;29;20224;-65
2022/04/23 15:08:27;;;;;;;15.05;12.27;;;12.20;99.90;;;;;;4922186;29;20237;-64
2022/04/23 15:10:54;;;;;;;16.40;12.35;;;12.20;99.90;;;;;;4921605;29;20205;-65
2022/04/23 15:13:22;;;;;;;12.45;11.07;;;12.10;99.90;;;;;;4920958;29;20251;-65
2022/04/23 15:15:49;;;;;;;14.63;11.90;;;12.10;99.90;;;;;;4920870;29;20292;-64
2022/04/23 15:18:16;;;;;;;20.10;14.02;;;12.20;99.90;;;;;;4920881;29;20205;-64
2022/04/23 15:20:43;;;;;;;13.65;11.23;;;12.10;99.90;;;;;;4920786;29;20291;-64
2022/04/23 15:23:10;;;;;;;11.48;10.13;;;12.20;99.90;;;;;;4920530;29;20327;-64
2022/04/23 15:25:37;;;;;;;16.52;12.60;;;12.30;99.90;;;;;;4920717;29;20596;-63
2022/04/23 15:28:05;;;;;;;16.27;12.65;;;12.30;99.90;;;;;;4920772;29;20304;-65
2022/04/23 15:30:33;;;;;;;14.15;10.80;;;12.20;99.90;;;;;;4920775;29;20296;-65
2022/04/23 15:33:00;;;;;;;13.27;10.73;;;12.20;99.90;;;;;;4920665;29;20312;-63
2022/04/23 15:35:27;;;;;;;12.13;10.35;;;12.30;99.90;;;;;;4920609;29;20622;-64
2022/04/23 15:37:55;;;;;;;13.13;11.57;;;12.40;99.90;;;;;;4921468;29;20308;-65
2022/04/23 15:40:22;;;;;;;14.32;11.70;;;12.30;99.90;;;;;;4920663;29;20205;-64
2022/04/23 15:42:49;;;;;;;14.40;11.70;;;12.30;99.90;;;;;;4920335;29;20632;-66
2022/04/23 15:45:16;;;;;;;13.27;11.88;;;12.30;99.90;;;;;;4920435;29;20253;-65
2022/04/23 15:47:44;;;;;;;14.30;11.75;;;12.40;99.90;;;;;;4920577;29;20220;-65
2022/04/23 15:50:11;;;;;;;18.38;13.13;;;12.40;99.90;;;;;;4920255;29;20300;-65
2022/04/23 15:52:38;;;;;;;13.55;12.15;;;12.20;99.90;;;;;;4920038;29;20230;-65
2022/04/23 15:55:06;;;;;;;16.40;12.52;;;12.30;99.90;;;;;;4920705;29;20288;-63
2022/04/23 15:57:34;;;;;;;15.55;13.07;;;12.20;99.90;;;;;;4920128;29;20630;-63
2022/04/23 16:00:01;;;;;;;14.90;12.90;;;12.20;99.90;;;;;;4920167;29;20205;-62
2022/04/23 16:02:28;;;;;;;15.88;12.73;;;12.20;99.90;;;;;;4920010;29;20205;-63
2022/04/23 16:04:56;;;;;;;13.00;11.30;;;12.10;99.90;;;;;;4920011;29;20292;-63
2022/04/23 16:07:24;;;;;;;13.18;11.77;;;12.00;99.90;;;;;;4920625;29;20296;-63
2022/04/23 16:09:52;;;;;;;15.55;12.48;;;12.00;99.90;;;;;;4919446;29;20215;-63
2022/04/23 16:12:18;;;;;;;15.55;12.00;;;11.90;99.90;;;;;;4919313;29;20636;-65
2022/04/23 16:14:45;;;;;;;16.95;14.00;;;12.10;99.90;;;;;;4920174;29;20300;-63
2022/04/23 16:17:13;;;;;;;16.45;12.75;;;12.10;99.90;;;;;;4920552;29;20285;-63
2022/04/23 16:19:40;;;;;;;15.55;13.30;;;12.20;99.90;;;;;;4919653;29;20296;-63
2022/04/23 16:22:08;;;;;;;15.73;12.60;;;12.30;99.90;;;;;;4919386;29;20674;-63
2022/04/23 16:24:36;;;;;;;15.23;10.80;;;12.30;99.90;;;;;;4919422;29;20233;-63
2022/04/23 16:27:03;;;;;;;17.02;14.10;;;12.40;99.90;;;;;;4919947;29;20225;-62
2022/04/23 16:29:30;;;;;;;13.85;11.65;;;12.50;99.90;;;;;;4920049;29;20216;-63
2022/04/23 16:31:57;;;;;;;17.48;13.05;;;12.50;99.90;;;;;;4920564;29;20280;-64
2022/04/23 16:34:24;;;;;;;15.95;14.10;;;12.50;99.90;;;;;;4919590;29;20317;-63
2022/04/23 16:47:50;;;;;;;15.40;13.70;;;12.40;99.90;;;;;;4919363;29;20676;-63
2022/04/23 16:50:17;;;;;;;16.30;13.25;;;12.40;99.90;;;;;;4919330;29;20300;-62
2022/04/23 16:52:44;;;;;;;16.35;13.77;;;12.40;99.90;;;;;;4919352;29;20320;-62
2022/04/23 16:55:12;;;;;;;15.43;13.35;;;12.40;99.90;;;;;;4919292;29;20209;-63
2022/04/23 16:57:39;;;;;;;17.88;14.55;;;12.30;99.90;;;;;;4919037;29;20209;-62
2022/04/23 17:00:07;;;;;;;19.52;14.70;;;12.30;99.90;;;;;;4919232;29;20626;-63
2022/04/23 17:02:34;;;;;;;13.57;12.18;;;12.30;99.90;;;;;;4918612;29;20320;-63
2022/04/23 17:05:01;;;;;;;15.10;12.48;;;12.20;99.90;;;;;;4919077;29;20292;-63
2022/04/23 17:07:28;;;;;;;15.30;13.57;;;12.20;99.90;;;;;;4919108;29;20296;-63
2022/04/23 17:09:54;;;;;;;15.27;13.00;;;12.20;99.90;;;;;;4919110;29;20296;-63
2022/04/23 17:12:23;;;;;;;16.65;13.27;;;12.20;99.90;;;;;;4918938;29;20304;-63
2022/04/23 17:14:50;;;;;;;15.30;13.70;;;12.10;99.90;;;;;;4919122;29;20296;-64
2022/04/23 17:17:16;;;;;;;15.27;13.68;;;12.10;99.90;;;;;;4918944;29;20288;-63
2022/04/23 17:19:43;;;;;;;15.93;13.50;;;12.00;99.90;;;;;;4918787;29;20205;-63
2022/04/23 17:22:10;;;;;;;16.52;14.15;;;12.00;99.90;;;;;;4918646;29;20296;-63
2022/04/23 17:24:37;;;;;;;15.27;12.52;;;12.10;99.90;;;;;;4917909;29;20618;-63
2022/04/23 17:27:05;;;;;;;16.33;13.93;;;12.00;99.90;;;;;;4918519;29;20795;-64
2022/04/23 17:29:34;;;;;;;15.85;13.13;;;12.00;99.90;;;;;;4918636;29;20662;-63
2022/04/23 17:32:00;;;;;;;20.92;14.52;;;12.00;99.90;;;;;;4918759;29;20293;-64
2022/04/23 17:34:27;;;;;;;14.02;12.65;;;12.00;99.90;;;;;;4918729;29;20321;-64
2022/04/23 17:36:54;;;;;;;16.95;14.05;;;12.00;99.90;;;;;;4918343;29;20712;-64
2022/04/23 17:39:21;;;;;;;16.25;14.35;;;11.90;99.90;;;;;;4918124;29;20292;-64
2022/04/23 17:41:50;;;;;;;18.00;15.35;;;11.90;99.90;;;;;;4918106;29;20296;-64
2022/04/23 17:44:17;;;;;;;18.00;14.52;;;11.90;99.90;;;;;;4918369;29;20593;-64
2022/04/23 17:46:46;;;;;;;16.73;14.95;;;11.90;99.90;;;;;;4918512;29;20221;-63
2022/04/23 17:49:12;;;;;;;18.95;15.43;;;11.90;99.90;;;;;;4918482;29;20296;-64
2022/04/23 17:51:39;;;;;;;18.08;15.65;;;11.80;99.90;;;;;;4918331;29;20301;-64
2022/04/23 17:54:06;;;;;;;17.48;14.73;;;11.80;99.90;;;;;;4918215;29;20313;-63
2022/04/23 17:56:35;;;;;;;16.45;14.10;;;11.80;99.90;;;;;;4917905;29;20296;-63
2022/04/23 17:59:02;;;;;;;15.90;14.20;;;11.70;99.90;;;;;;4918324;29;20299;-63
2022/04/23 18:09:45;;;;;;;18.50;14.15;;;11.60;99.90;;;;;;4917984;29;20188;-63
2022/04/23 18:12:12;;;;;;;19.00;15.55;;;11.60;99.90;;;;;;4917994;29;20205;-63
2022/04/23 18:14:40;;;;;;;16.95;15.15;;;11.60;99.90;;;;;;4918540;29;20315;-64
2022/04/23 18:17:07;;;;;;;20.40;15.82;;;11.50;99.90;;;;;;4918075;29;20201;-63
2022/04/23 18:19:35;;;;;;;18.63;15.82;;;11.40;99.90;;;;;;4917876;29;20296;-63
2022/04/23 18:22:03;;;;;;;21.15;16.55;;;11.40;99.90;;;;;;4918656;29;20621;-63
2022/04/23 18:24:30;;;;;;;19.02;15.82;;;11.30;99.90;;;;;;4917149;29;20233;-63
2022/04/23 18:26:57;;;;;;;20.85;14.90;;;11.30;99.90;;;;;;4917201;29;20321;-63
2022/04/23 18:29:24;;;;;;;24.23;16.92;;;11.30;99.90;;;;;;4917567;29;20202;-62
2022/04/23 18:31:52;;;;;;;19.02;15.70;;;11.20;99.90;;;;;;4917440;29;20293;-63
2022/04/23 18:34:20;;;;;;;23.48;17.25;;;11.20;99.90;;;;;;4917519;29;20232;-63
2022/04/23 18:36:48;;;;;;;20.73;15.77;;;11.10;99.90;;;;;;4917730;29;20288;-64
2022/04/23 18:39:15;;;;;;;19.90;16.30;;;11.10;99.90;;;;;;4918028;29;20339;-63
2022/04/23 18:41:42;;;;;;;22.15;16.08;;;11.00;99.90;;;;;;4917728;29;20300;-63
2022/04/23 18:44:09;;;;;;;19.90;16.70;;;11.00;99.90;;;;;;4917288;29;20788;-63
2022/04/23 18:46:36;;;;;;;21.35;16.35;;;11.00;99.90;;;;;;4917293;29;20793;-62
2022/04/23 18:49:03;;;;;;;22.20;17.08;;;10.90;99.90;;;;;;4917472;29;20300;-62
2022/04/23 18:51:31;;;;;;;25.05;18.45;;;10.90;99.90;;;;;;4917633;29;20296;-62
2022/04/23 18:53:59;;;;;;;21.77;16.75;;;10.80;99.90;;;;;;4917332;29;20317;-62
2022/04/23 18:56:26;;;;;;;23.85;17.05;;;10.80;99.90;;;;;;4917574;29;20281;-63